sensor_id;sensor_type;location;lat;lon;timestamp;P1;durP1;ratioP1;P2;durP2;ratioP2
77944;SDS011;67142;47.404;-1.384;2023-04-08T00:02:16;16.50;;;15.00;;
77944;SDS011;67142;47.404;-1.384;2023-04-08T00:04:42;17.00;;;15.38;;
77944;SDS011;67142;47.404;-1.384;2023-04-08T00:07:09;16.58;;;14.98;;
77944;SDS011;67142;47.404;-1.384;2023-04-08T00:09:35;16.43;;;15.00;;
77944;SDS011;67142;47.404;-1.384;2023-04-08T00:12:01;15.93;;;14.38;;
77944;SDS011;67142;47.404;-1.384;2023-04-08T00:14:27;16.10;;;14.60;;
77944;SDS011;67142;47.404;-1.384;2023-04-08T00:16:53;15.90;;;14.32;;
77944;SDS011;67142;47.404;-1.384;2023-04-08T00:19:19;15.82;;;14.32;;
77944;SDS011;67142;47.404;-1.384;2023-04-08T00:21:45;16.73;;;15.17;;
77944;SDS011;67142;47.404;-1.384;2023-04-08T00:24:12;16.73;;;15.00;;
77944;SDS011;67142;47.404;-1.384;2023-04-08T00:26:38;15.55;;;14.15;;
77944;SDS011;67142;47.404;-1.384;2023-04-08T00:29:04;15.80;;;14.20;;
77944;SDS011;67142;47.404;-1.384;2023-04-08T00:31:30;15.60;;;14.10;;
77944;SDS011;67142;47.404;-1.384;2023-04-08T00:33:56;15.70;;;14.30;;
77944;SDS011;67142;47.404;-1.384;2023-04-08T00:36:22;15.23;;;13.80;;
77944;SDS011;67142;47.404;-1.384;2023-04-08T00:38:48;15.73;;;14.32;;
77944;SDS011;67142;47.404;-1.384;2023-04-08T00:41:14;15.60;;;14.20;;
77944;SDS011;67142;47.404;-1.384;2023-04-08T00:43:41;15.23;;;13.82;;
77944;SDS011;67142;47.404;-1.384;2023-04-08T00:46:07;15.67;;;14.17;;
77944;SDS011;67142;47.404;-1.384;2023-04-08T00:48:33;15.50;;;14.10;;
77944;SDS011;67142;47.404;-1.384;2023-04-08T00:51:00;16.08;;;14.50;;
77944;SDS011;67142;47.404;-1.384;2023-04-08T00:53:26;15.63;;;14.23;;
77944;SDS011;67142;47.404;-1.384;2023-04-08T00:55:52;15.90;;;14.30;;
77944;SDS011;67142;47.404;-1.384;2023-04-08T00:58:18;15.40;;;14.00;;
77944;SDS011;67142;47.404;-1.384;2023-04-08T01:00:54;15.30;;;14.00;;
77944;SDS011;67142;47.404;-1.384;2023-04-08T01:08:30;14.95;;;13.55;;
77944;SDS011;67142;47.404;-1.384;2023-04-08T01:11:00;14.90;;;13.70;;
77944;SDS011;67142;47.404;-1.384;2023-04-08T01:13:26;15.48;;;13.88;;
77944;SDS011;67142;47.404;-1.384;2023-04-08T01:15:54;14.93;;;13.63;;
77944;SDS011;67142;47.404;-1.384;2023-04-08T01:18:20;15.57;;;14.07;;
77944;SDS011;67142;47.404;-1.384;2023-04-08T01:20:47;15.30;;;13.98;;
77944;SDS011;67142;47.404;-1.384;2023-04-08T01:25:59;15.25;;;13.95;;
77944;SDS011;67142;47.404;-1.384;2023-04-08T01:28:26;15.05;;;13.70;;
77944;SDS011;67142;47.404;-1.384;2023-04-08T01:30:53;14.82;;;13.52;;
77944;SDS011;67142;47.404;-1.384;2023-04-08T01:33:20;15.50;;;14.10;;
77944;SDS011;67142;47.404;-1.384;2023-04-08T01:35:46;14.67;;;13.33;;
77944;SDS011;67142;47.404;-1.384;2023-04-08T01:38:13;14.73;;;13.45;;
77944;SDS011;67142;47.404;-1.384;2023-04-08T01:40:40;15.65;;;14.25;;
77944;SDS011;67142;47.404;-1.384;2023-04-08T01:43:07;16.17;;;14.60;;
77944;SDS011;67142;47.404;-1.384;2023-04-08T01:45:34;15.43;;;14.02;;
77944;SDS011;67142;47.404;-1.384;2023-04-08T01:48:00;15.23;;;13.70;;
77944;SDS011;67142;47.404;-1.384;2023-04-08T01:50:27;14.60;;;13.38;;
77944;SDS011;67142;47.404;-1.384;2023-04-08T01:52:54;15.13;;;13.90;;
77944;SDS011;67142;47.404;-1.384;2023-04-08T01:55:20;14.52;;;13.23;;
77944;SDS011;67142;47.404;-1.384;2023-04-08T01:57:47;15.15;;;13.65;;
77944;SDS011;67142;47.404;-1.384;2023-04-08T02:00:15;14.70;;;13.40;;
77944;SDS011;67142;47.404;-1.384;2023-04-08T02:02:43;15.45;;;14.07;;
77944;SDS011;67142;47.404;-1.384;2023-04-08T02:05:10;15.32;;;13.93;;
77944;SDS011;67142;47.404;-1.384;2023-04-08T02:07:37;15.35;;;13.85;;
77944;SDS011;67142;47.404;-1.384;2023-04-08T02:10:03;15.65;;;14.10;;
77944;SDS011;67142;47.404;-1.384;2023-04-08T02:12:29;14.83;;;13.43;;
77944;SDS011;67142;47.404;-1.384;2023-04-08T02:14:55;14.98;;;13.48;;
77944;SDS011;67142;47.404;-1.384;2023-04-08T02:20:08;14.90;;;13.50;;
77944;SDS011;67142;47.404;-1.384;2023-04-08T02:25:34;14.73;;;13.50;;
77944;SDS011;67142;47.404;-1.384;2023-04-08T02:28:02;17.45;;;14.30;;
77944;SDS011;67142;47.404;-1.384;2023-04-08T02:30:29;15.23;;;13.82;;
77944;SDS011;67142;47.404;-1.384;2023-04-08T02:32:56;15.55;;;14.05;;
77944;SDS011;67142;47.404;-1.384;2023-04-08T02:35:22;15.02;;;13.63;;
77944;SDS011;67142;47.404;-1.384;2023-04-08T02:37:49;15.33;;;14.03;;
77944;SDS011;67142;47.404;-1.384;2023-04-08T02:40:33;15.23;;;13.85;;
77944;SDS011;67142;47.404;-1.384;2023-04-08T02:43:02;16.15;;;14.75;;
77944;SDS011;67142;47.404;-1.384;2023-04-08T02:45:32;15.10;;;13.80;;
77944;SDS011;67142;47.404;-1.384;2023-04-08T02:48:00;14.95;;;13.55;;
77944;SDS011;67142;47.404;-1.384;2023-04-08T02:50:26;14.73;;;13.43;;
77944;SDS011;67142;47.404;-1.384;2023-04-08T02:52:52;15.20;;;13.85;;
77944;SDS011;67142;47.404;-1.384;2023-04-08T02:55:18;15.88;;;14.30;;
77944;SDS011;67142;47.404;-1.384;2023-04-08T02:57:45;15.80;;;14.30;;
77944;SDS011;67142;47.404;-1.384;2023-04-08T03:00:12;15.82;;;14.30;;
77944;SDS011;67142;47.404;-1.384;2023-04-08T03:02:38;14.97;;;13.67;;
77944;SDS011;67142;47.404;-1.384;2023-04-08T03:05:04;15.35;;;14.05;;
77944;SDS011;67142;47.404;-1.384;2023-04-08T03:07:31;15.27;;;13.85;;
77944;SDS011;67142;47.404;-1.384;2023-04-08T03:09:57;14.93;;;13.55;;
77944;SDS011;67142;47.404;-1.384;2023-04-08T03:12:23;15.40;;;14.00;;
77944;SDS011;67142;47.404;-1.384;2023-04-08T03:14:51;14.87;;;13.57;;
77944;SDS011;67142;47.404;-1.384;2023-04-08T03:17:17;14.30;;;13.10;;
77944;SDS011;67142;47.404;-1.384;2023-04-08T03:19:43;15.13;;;13.73;;
77944;SDS011;67142;47.404;-1.384;2023-04-08T03:22:09;15.05;;;13.65;;
77944;SDS011;67142;47.404;-1.384;2023-04-08T03:24:35;14.73;;;13.40;;
77944;SDS011;67142;47.404;-1.384;2023-04-08T03:27:01;15.33;;;13.83;;
77944;SDS011;67142;47.404;-1.384;2023-04-08T03:29:27;15.25;;;13.80;;
77944;SDS011;67142;47.404;-1.384;2023-04-08T03:31:53;15.40;;;14.10;;
77944;SDS011;67142;47.404;-1.384;2023-04-08T03:34:20;15.30;;;13.90;;
77944;SDS011;67142;47.404;-1.384;2023-04-08T03:36:46;15.32;;;14.00;;
77944;SDS011;67142;47.404;-1.384;2023-04-08T03:39:12;15.90;;;14.50;;
77944;SDS011;67142;47.404;-1.384;2023-04-08T03:41:38;15.40;;;14.00;;
77944;SDS011;67142;47.404;-1.384;2023-04-08T03:44:04;15.27;;;13.98;;
77944;SDS011;67142;47.404;-1.384;2023-04-08T03:46:30;15.27;;;13.88;;
77944;SDS011;67142;47.404;-1.384;2023-04-08T03:48:56;16.45;;;14.73;;
77944;SDS011;67142;47.404;-1.384;2023-04-08T03:51:22;15.30;;;14.10;;
77944;SDS011;67142;47.404;-1.384;2023-04-08T03:53:48;15.57;;;14.20;;
77944;SDS011;67142;47.404;-1.384;2023-04-08T03:56:14;15.70;;;14.27;;
77944;SDS011;67142;47.404;-1.384;2023-04-08T03:58:40;15.50;;;14.20;;
77944;SDS011;67142;47.404;-1.384;2023-04-08T04:01:06;16.13;;;14.73;;
77944;SDS011;67142;47.404;-1.384;2023-04-08T04:03:32;16.77;;;15.07;;
77944;SDS011;67142;47.404;-1.384;2023-04-08T04:05:58;16.30;;;14.70;;
77944;SDS011;67142;47.404;-1.384;2023-04-08T04:08:24;15.95;;;14.65;;
77944;SDS011;67142;47.404;-1.384;2023-04-08T04:10:50;15.95;;;14.50;;
77944;SDS011;67142;47.404;-1.384;2023-04-08T04:13:16;16.02;;;14.43;;
77944;SDS011;67142;47.404;-1.384;2023-04-08T04:15:43;17.53;;;15.40;;
77944;SDS011;67142;47.404;-1.384;2023-04-08T04:18:09;16.10;;;14.60;;
77944;SDS011;67142;47.404;-1.384;2023-04-08T04:20:38;16.42;;;14.93;;
77944;SDS011;67142;47.404;-1.384;2023-04-08T04:23:04;16.67;;;14.98;;
77944;SDS011;67142;47.404;-1.384;2023-04-08T04:25:30;17.15;;;15.48;;
77944;SDS011;67142;47.404;-1.384;2023-04-08T04:27:56;16.63;;;15.13;;
77944;SDS011;67142;47.404;-1.384;2023-04-08T04:30:23;16.10;;;14.60;;
77944;SDS011;67142;47.404;-1.384;2023-04-08T04:32:50;17.02;;;15.43;;
77944;SDS011;67142;47.404;-1.384;2023-04-08T04:35:16;16.27;;;14.77;;
77944;SDS011;67142;47.404;-1.384;2023-04-08T04:37:42;16.02;;;14.73;;
77944;SDS011;67142;47.404;-1.384;2023-04-08T04:40:08;17.07;;;15.37;;
77944;SDS011;67142;47.404;-1.384;2023-04-08T04:42:34;16.70;;;15.27;;
77944;SDS011;67142;47.404;-1.384;2023-04-08T04:45:00;17.13;;;15.40;;
77944;SDS011;67142;47.404;-1.384;2023-04-08T04:47:26;17.08;;;15.40;;
77944;SDS011;67142;47.404;-1.384;2023-04-08T04:49:52;16.83;;;15.32;;
77944;SDS011;67142;47.404;-1.384;2023-04-08T04:52:18;16.23;;;14.67;;
77944;SDS011;67142;47.404;-1.384;2023-04-08T04:54:44;16.50;;;15.00;;
77944;SDS011;67142;47.404;-1.384;2023-04-08T04:57:10;16.63;;;15.00;;
77944;SDS011;67142;47.404;-1.384;2023-04-08T04:59:36;17.15;;;15.45;;
77944;SDS011;67142;47.404;-1.384;2023-04-08T05:02:02;16.65;;;15.15;;
77944;SDS011;67142;47.404;-1.384;2023-04-08T05:04:28;16.33;;;14.80;;
77944;SDS011;67142;47.404;-1.384;2023-04-08T05:06:54;16.63;;;15.02;;
77944;SDS011;67142;47.404;-1.384;2023-04-08T05:09:20;17.00;;;15.60;;
77944;SDS011;67142;47.404;-1.384;2023-04-08T05:11:46;16.23;;;14.73;;
77944;SDS011;67142;47.404;-1.384;2023-04-08T05:14:12;16.98;;;15.43;;
77944;SDS011;67142;47.404;-1.384;2023-04-08T05:16:38;16.40;;;14.90;;
77944;SDS011;67142;47.404;-1.384;2023-04-08T05:19:04;16.63;;;15.00;;
77944;SDS011;67142;47.404;-1.384;2023-04-08T05:21:30;16.70;;;15.20;;
77944;SDS011;67142;47.404;-1.384;2023-04-08T05:23:57;16.42;;;14.90;;
77944;SDS011;67142;47.404;-1.384;2023-04-08T05:26:23;16.75;;;15.20;;
77944;SDS011;67142;47.404;-1.384;2023-04-08T05:28:49;16.43;;;14.93;;
77944;SDS011;67142;47.404;-1.384;2023-04-08T05:31:15;16.85;;;15.30;;
77944;SDS011;67142;47.404;-1.384;2023-04-08T05:33:42;16.60;;;15.10;;
77944;SDS011;67142;47.404;-1.384;2023-04-08T05:36:09;16.63;;;15.02;;
77944;SDS011;67142;47.404;-1.384;2023-04-08T05:38:35;16.35;;;14.93;;
77944;SDS011;67142;47.404;-1.384;2023-04-08T05:41:02;15.93;;;14.23;;
77944;SDS011;67142;47.404;-1.384;2023-04-08T05:43:28;16.77;;;15.07;;
77944;SDS011;67142;47.404;-1.384;2023-04-08T05:45:54;17.45;;;15.75;;
77944;SDS011;67142;47.404;-1.384;2023-04-08T05:48:20;17.77;;;16.17;;
77944;SDS011;67142;47.404;-1.384;2023-04-08T05:50:46;16.45;;;14.95;;
77944;SDS011;67142;47.404;-1.384;2023-04-08T05:53:12;17.53;;;15.83;;
77944;SDS011;67142;47.404;-1.384;2023-04-08T05:55:39;17.60;;;16.10;;
77944;SDS011;67142;47.404;-1.384;2023-04-08T05:58:05;17.48;;;16.08;;
77944;SDS011;67142;47.404;-1.384;2023-04-08T06:00:31;18.08;;;16.40;;
77944;SDS011;67142;47.404;-1.384;2023-04-08T06:02:57;18.63;;;16.95;;
77944;SDS011;67142;47.404;-1.384;2023-04-08T06:05:24;19.00;;;17.07;;
77944;SDS011;67142;47.404;-1.384;2023-04-08T06:07:50;18.33;;;16.70;;
77944;SDS011;67142;47.404;-1.384;2023-04-08T06:10:16;18.13;;;16.38;;
77944;SDS011;67142;47.404;-1.384;2023-04-08T06:12:42;18.23;;;16.35;;
77944;SDS011;67142;47.404;-1.384;2023-04-08T06:15:08;17.75;;;15.98;;
77944;SDS011;67142;47.404;-1.384;2023-04-08T06:17:35;18.07;;;16.23;;
77944;SDS011;67142;47.404;-1.384;2023-04-08T06:20:01;17.23;;;15.55;;
77944;SDS011;67142;47.404;-1.384;2023-04-08T06:22:27;18.33;;;16.58;;
77944;SDS011;67142;47.404;-1.384;2023-04-08T06:24:53;17.67;;;15.98;;
77944;SDS011;67142;47.404;-1.384;2023-04-08T06:27:20;17.38;;;15.80;;
77944;SDS011;67142;47.404;-1.384;2023-04-08T06:29:46;17.00;;;15.30;;
77944;SDS011;67142;47.404;-1.384;2023-04-08T06:32:12;16.05;;;14.55;;
77944;SDS011;67142;47.404;-1.384;2023-04-08T06:34:38;17.73;;;16.08;;
77944;SDS011;67142;47.404;-1.384;2023-04-08T06:37:05;17.25;;;15.65;;
77944;SDS011;67142;47.404;-1.384;2023-04-08T06:39:31;17.48;;;15.70;;
77944;SDS011;67142;47.404;-1.384;2023-04-08T06:41:57;16.63;;;15.03;;
77944;SDS011;67142;47.404;-1.384;2023-04-08T06:44:23;17.55;;;15.70;;
77944;SDS011;67142;47.404;-1.384;2023-04-08T06:46:50;17.80;;;16.05;;
77944;SDS011;67142;47.404;-1.384;2023-04-08T06:49:16;17.00;;;15.38;;
77944;SDS011;67142;47.404;-1.384;2023-04-08T06:51:42;17.50;;;15.82;;
77944;SDS011;67142;47.404;-1.384;2023-04-08T06:54:08;17.63;;;15.90;;
77944;SDS011;67142;47.404;-1.384;2023-04-08T06:56:34;17.65;;;15.85;;
77944;SDS011;67142;47.404;-1.384;2023-04-08T06:59:01;17.38;;;15.43;;
77944;SDS011;67142;47.404;-1.384;2023-04-08T07:01:27;18.00;;;16.20;;
77944;SDS011;67142;47.404;-1.384;2023-04-08T07:03:53;17.65;;;15.80;;
77944;SDS011;67142;47.404;-1.384;2023-04-08T07:06:19;17.57;;;15.70;;
77944;SDS011;67142;47.404;-1.384;2023-04-08T07:08:45;18.30;;;16.45;;
77944;SDS011;67142;47.404;-1.384;2023-04-08T07:11:11;18.33;;;16.42;;
77944;SDS011;67142;47.404;-1.384;2023-04-08T07:13:37;17.02;;;15.32;;
77944;SDS011;67142;47.404;-1.384;2023-04-08T07:16:03;19.30;;;16.30;;
77944;SDS011;67142;47.404;-1.384;2023-04-08T07:18:31;17.03;;;15.33;;
77944;SDS011;67142;47.404;-1.384;2023-04-08T07:20:57;17.00;;;15.30;;
77944;SDS011;67142;47.404;-1.384;2023-04-08T07:23:25;19.15;;;17.20;;
77944;SDS011;67142;47.404;-1.384;2023-04-08T07:25:51;16.88;;;15.25;;
77944;SDS011;67142;47.404;-1.384;2023-04-08T07:28:18;18.92;;;16.90;;
77944;SDS011;67142;47.404;-1.384;2023-04-08T07:30:44;17.40;;;15.70;;
77944;SDS011;67142;47.404;-1.384;2023-04-08T07:33:10;18.55;;;15.88;;
77944;SDS011;67142;47.404;-1.384;2023-04-08T07:35:36;18.30;;;16.40;;
77944;SDS011;67142;47.404;-1.384;2023-04-08T07:38:02;20.48;;;16.45;;
77944;SDS011;67142;47.404;-1.384;2023-04-08T07:40:28;18.27;;;16.25;;
77944;SDS011;67142;47.404;-1.384;2023-04-08T07:42:55;19.03;;;17.03;;
77944;SDS011;67142;47.404;-1.384;2023-04-08T07:45:21;17.92;;;16.13;;
77944;SDS011;67142;47.404;-1.384;2023-04-08T07:47:47;19.25;;;16.98;;
77944;SDS011;67142;47.404;-1.384;2023-04-08T07:50:13;18.15;;;16.33;;
77944;SDS011;67142;47.404;-1.384;2023-04-08T07:52:39;19.05;;;17.00;;
77944;SDS011;67142;47.404;-1.384;2023-04-08T07:55:05;18.33;;;16.30;;
77944;SDS011;67142;47.404;-1.384;2023-04-08T07:57:31;18.58;;;16.67;;
77944;SDS011;67142;47.404;-1.384;2023-04-08T07:59:57;20.05;;;16.42;;
77944;SDS011;67142;47.404;-1.384;2023-04-08T08:02:23;17.15;;;15.45;;
77944;SDS011;67142;47.404;-1.384;2023-04-08T08:04:49;21.33;;;17.70;;
77944;SDS011;67142;47.404;-1.384;2023-04-08T08:07:15;19.03;;;17.07;;
77944;SDS011;67142;47.404;-1.384;2023-04-08T08:09:41;19.70;;;17.20;;
77944;SDS011;67142;47.404;-1.384;2023-04-08T08:12:08;20.08;;;18.08;;
77944;SDS011;67142;47.404;-1.384;2023-04-08T08:14:34;19.30;;;17.25;;
77944;SDS011;67142;47.404;-1.384;2023-04-08T08:17:00;20.75;;;18.08;;
77944;SDS011;67142;47.404;-1.384;2023-04-08T08:19:26;20.00;;;17.90;;
77944;SDS011;67142;47.404;-1.384;2023-04-08T08:21:52;22.15;;;17.70;;
77944;SDS011;67142;47.404;-1.384;2023-04-08T08:24:18;19.17;;;17.20;;
77944;SDS011;67142;47.404;-1.384;2023-04-08T08:26:44;18.92;;;16.92;;
77944;SDS011;67142;47.404;-1.384;2023-04-08T08:29:11;20.27;;;18.17;;
77944;SDS011;67142;47.404;-1.384;2023-04-08T08:31:37;19.70;;;17.27;;
77944;SDS011;67142;47.404;-1.384;2023-04-08T08:34:03;19.80;;;17.48;;
77944;SDS011;67142;47.404;-1.384;2023-04-08T08:36:29;19.48;;;17.35;;
77944;SDS011;67142;47.404;-1.384;2023-04-08T08:38:55;22.60;;;19.02;;
77944;SDS011;67142;47.404;-1.384;2023-04-08T08:41:21;21.88;;;18.58;;
77944;SDS011;67142;47.404;-1.384;2023-04-08T08:43:47;20.40;;;18.30;;
77944;SDS011;67142;47.404;-1.384;2023-04-08T08:46:15;20.00;;;17.95;;
77944;SDS011;67142;47.404;-1.384;2023-04-08T08:48:41;21.40;;;19.20;;
77944;SDS011;67142;47.404;-1.384;2023-04-08T08:51:11;20.75;;;18.55;;
77944;SDS011;67142;47.404;-1.384;2023-04-08T08:53:37;20.45;;;18.38;;
77944;SDS011;67142;47.404;-1.384;2023-04-08T08:56:04;20.13;;;18.13;;
77944;SDS011;67142;47.404;-1.384;2023-04-08T08:58:30;19.52;;;17.52;;
77944;SDS011;67142;47.404;-1.384;2023-04-08T09:00:56;19.83;;;17.80;;
77944;SDS011;67142;47.404;-1.384;2023-04-08T09:03:23;20.15;;;18.05;;
77944;SDS011;67142;47.404;-1.384;2023-04-08T09:05:56;19.83;;;17.73;;
77944;SDS011;67142;47.404;-1.384;2023-04-08T09:10:49;18.95;;;17.02;;
77944;SDS011;67142;47.404;-1.384;2023-04-08T09:13:15;19.95;;;17.95;;
77944;SDS011;67142;47.404;-1.384;2023-04-08T09:18:25;20.23;;;18.23;;
77944;SDS011;67142;47.404;-1.384;2023-04-08T09:20:52;19.93;;;17.90;;
77944;SDS011;67142;47.404;-1.384;2023-04-08T09:23:18;21.60;;;18.95;;
77944;SDS011;67142;47.404;-1.384;2023-04-08T09:25:44;21.30;;;19.25;;
77944;SDS011;67142;47.404;-1.384;2023-04-08T09:28:19;20.60;;;18.50;;
77944;SDS011;67142;47.404;-1.384;2023-04-08T09:30:46;20.90;;;18.60;;
77944;SDS011;67142;47.404;-1.384;2023-04-08T09:33:12;20.53;;;18.43;;
77944;SDS011;67142;47.404;-1.384;2023-04-08T09:35:38;20.35;;;18.38;;
77944;SDS011;67142;47.404;-1.384;2023-04-08T09:38:04;21.73;;;18.50;;
77944;SDS011;67142;47.404;-1.384;2023-04-08T09:40:33;21.20;;;18.92;;
77944;SDS011;67142;47.404;-1.384;2023-04-08T09:43:03;21.45;;;19.25;;
77944;SDS011;67142;47.404;-1.384;2023-04-08T09:45:30;20.60;;;18.60;;
77944;SDS011;67142;47.404;-1.384;2023-04-08T09:50:35;21.58;;;19.35;;
77944;SDS011;67142;47.404;-1.384;2023-04-08T09:55:54;21.42;;;19.33;;
77944;SDS011;67142;47.404;-1.384;2023-04-08T09:58:24;20.73;;;18.63;;
77944;SDS011;67142;47.404;-1.384;2023-04-08T10:00:53;21.80;;;19.50;;
77944;SDS011;67142;47.404;-1.384;2023-04-08T10:05:45;21.88;;;19.58;;
77944;SDS011;67142;47.404;-1.384;2023-04-08T10:08:12;21.70;;;19.55;;
77944;SDS011;67142;47.404;-1.384;2023-04-08T10:10:38;21.30;;;19.40;;
77944;SDS011;67142;47.404;-1.384;2023-04-08T10:13:05;20.95;;;18.88;;
77944;SDS011;67142;47.404;-1.384;2023-04-08T10:15:34;20.83;;;18.83;;
77944;SDS011;67142;47.404;-1.384;2023-04-08T10:23:00;21.07;;;19.00;;
77944;SDS011;67142;47.404;-1.384;2023-04-08T10:27:59;22.17;;;19.92;;
77944;SDS011;67142;47.404;-1.384;2023-04-08T10:32:57;21.30;;;19.20;;
77944;SDS011;67142;47.404;-1.384;2023-04-08T10:35:30;20.40;;;18.60;;
77944;SDS011;67142;47.404;-1.384;2023-04-08T10:37:57;22.13;;;20.02;;
77944;SDS011;67142;47.404;-1.384;2023-04-08T10:40:23;22.00;;;20.00;;
77944;SDS011;67142;47.404;-1.384;2023-04-08T10:42:56;22.15;;;20.02;;
77944;SDS011;67142;47.404;-1.384;2023-04-08T10:45:22;20.50;;;18.52;;
77944;SDS011;67142;47.404;-1.384;2023-04-08T10:47:48;20.20;;;18.47;;
77944;SDS011;67142;47.404;-1.384;2023-04-08T10:50:15;20.63;;;18.73;;
77944;SDS011;67142;47.404;-1.384;2023-04-08T10:52:48;21.45;;;19.58;;
77944;SDS011;67142;47.404;-1.384;2023-04-08T10:55:15;20.98;;;19.15;;
77944;SDS011;67142;47.404;-1.384;2023-04-08T10:57:42;21.80;;;19.95;;
77944;SDS011;67142;47.404;-1.384;2023-04-08T11:00:14;20.70;;;18.90;;
77944;SDS011;67142;47.404;-1.384;2023-04-08T11:02:42;21.20;;;19.50;;
77944;SDS011;67142;47.404;-1.384;2023-04-08T11:05:11;21.10;;;19.20;;
77944;SDS011;67142;47.404;-1.384;2023-04-08T11:07:40;20.80;;;19.10;;
77944;SDS011;67142;47.404;-1.384;2023-04-08T11:10:09;22.02;;;20.00;;
77944;SDS011;67142;47.404;-1.384;2023-04-08T11:12:36;21.20;;;19.50;;
77944;SDS011;67142;47.404;-1.384;2023-04-08T11:15:02;21.90;;;19.95;;
77944;SDS011;67142;47.404;-1.384;2023-04-08T11:17:29;21.45;;;19.75;;
77944;SDS011;67142;47.404;-1.384;2023-04-08T11:19:55;20.40;;;18.83;;
77944;SDS011;67142;47.404;-1.384;2023-04-08T11:22:26;20.02;;;18.33;;
77944;SDS011;67142;47.404;-1.384;2023-04-08T11:24:52;20.90;;;19.20;;
77944;SDS011;67142;47.404;-1.384;2023-04-08T11:27:18;21.38;;;19.58;;
77944;SDS011;67142;47.404;-1.384;2023-04-08T11:29:45;21.92;;;20.20;;
77944;SDS011;67142;47.404;-1.384;2023-04-08T11:32:11;21.77;;;20.08;;
77944;SDS011;67142;47.404;-1.384;2023-04-08T11:34:40;21.42;;;19.73;;
77944;SDS011;67142;47.404;-1.384;2023-04-08T11:37:06;21.10;;;19.40;;
77944;SDS011;67142;47.404;-1.384;2023-04-08T11:39:32;21.92;;;20.13;;
77944;SDS011;67142;47.404;-1.384;2023-04-08T11:41:58;21.48;;;19.77;;
77944;SDS011;67142;47.404;-1.384;2023-04-08T11:44:31;21.80;;;20.10;;
77944;SDS011;67142;47.404;-1.384;2023-04-08T11:46:57;22.65;;;20.95;;
77944;SDS011;67142;47.404;-1.384;2023-04-08T11:49:23;22.33;;;20.53;;
77944;SDS011;67142;47.404;-1.384;2023-04-08T11:51:53;20.25;;;18.65;;
77944;SDS011;67142;47.404;-1.384;2023-04-08T11:54:29;22.25;;;20.35;;
77944;SDS011;67142;47.404;-1.384;2023-04-08T11:56:56;20.75;;;19.17;;
77944;SDS011;67142;47.404;-1.384;2023-04-08T11:59:23;22.15;;;20.42;;
77944;SDS011;67142;47.404;-1.384;2023-04-08T12:01:52;20.17;;;18.60;;
77944;SDS011;67142;47.404;-1.384;2023-04-08T12:04:18;21.98;;;20.23;;
77944;SDS011;67142;47.404;-1.384;2023-04-08T12:06:44;20.90;;;19.27;;
77944;SDS011;67142;47.404;-1.384;2023-04-08T12:09:11;20.23;;;18.63;;
77944;SDS011;67142;47.404;-1.384;2023-04-08T12:11:37;19.30;;;17.70;;
77944;SDS011;67142;47.404;-1.384;2023-04-08T12:14:03;20.07;;;18.50;;
77944;SDS011;67142;47.404;-1.384;2023-04-08T12:16:29;21.63;;;19.85;;
77944;SDS011;67142;47.404;-1.384;2023-04-08T12:18:56;21.88;;;20.00;;
77944;SDS011;67142;47.404;-1.384;2023-04-08T12:21:22;21.33;;;19.67;;
77944;SDS011;67142;47.404;-1.384;2023-04-08T12:23:48;21.65;;;19.98;;
77944;SDS011;67142;47.404;-1.384;2023-04-08T12:26:14;20.43;;;18.90;;
77944;SDS011;67142;47.404;-1.384;2023-04-08T12:28:40;21.13;;;19.42;;
77944;SDS011;67142;47.404;-1.384;2023-04-08T12:31:06;22.17;;;20.52;;
77944;SDS011;67142;47.404;-1.384;2023-04-08T12:33:32;22.17;;;20.58;;
77944;SDS011;67142;47.404;-1.384;2023-04-08T12:35:58;22.80;;;21.05;;
77944;SDS011;67142;47.404;-1.384;2023-04-08T12:38:24;21.33;;;19.77;;
77944;SDS011;67142;47.404;-1.384;2023-04-08T12:40:51;21.48;;;19.77;;
77944;SDS011;67142;47.404;-1.384;2023-04-08T12:43:17;21.65;;;20.08;;
77944;SDS011;67142;47.404;-1.384;2023-04-08T12:45:43;21.73;;;20.02;;
77944;SDS011;67142;47.404;-1.384;2023-04-08T12:48:09;22.13;;;20.42;;
77944;SDS011;67142;47.404;-1.384;2023-04-08T12:50:35;20.87;;;19.27;;
77944;SDS011;67142;47.404;-1.384;2023-04-08T12:53:01;21.88;;;20.23;;
77944;SDS011;67142;47.404;-1.384;2023-04-08T12:55:27;22.88;;;21.13;;
77944;SDS011;67142;47.404;-1.384;2023-04-08T12:57:53;21.30;;;19.60;;
77944;SDS011;67142;47.404;-1.384;2023-04-08T13:00:19;21.73;;;19.95;;
77944;SDS011;67142;47.404;-1.384;2023-04-08T13:02:45;21.50;;;19.93;;
77944;SDS011;67142;47.404;-1.384;2023-04-08T13:05:11;22.25;;;20.45;;
77944;SDS011;67142;47.404;-1.384;2023-04-08T13:07:37;22.13;;;20.45;;
77944;SDS011;67142;47.404;-1.384;2023-04-08T13:10:03;20.98;;;19.38;;
77944;SDS011;67142;47.404;-1.384;2023-04-08T13:12:31;22.20;;;20.60;;
77944;SDS011;67142;47.404;-1.384;2023-04-08T13:14:57;22.33;;;20.73;;
77944;SDS011;67142;47.404;-1.384;2023-04-08T13:17:24;22.38;;;20.70;;
77944;SDS011;67142;47.404;-1.384;2023-04-08T13:19:50;23.33;;;21.63;;
77944;SDS011;67142;47.404;-1.384;2023-04-08T13:22:16;23.50;;;21.80;;
77944;SDS011;67142;47.404;-1.384;2023-04-08T13:24:42;23.80;;;21.80;;
77944;SDS011;67142;47.404;-1.384;2023-04-08T13:27:08;23.13;;;21.37;;
77944;SDS011;67142;47.404;-1.384;2023-04-08T13:29:34;22.77;;;20.98;;
77944;SDS011;67142;47.404;-1.384;2023-04-08T13:32:00;22.08;;;20.38;;
77944;SDS011;67142;47.404;-1.384;2023-04-08T13:34:26;21.35;;;19.73;;
77944;SDS011;67142;47.404;-1.384;2023-04-08T13:36:53;21.98;;;20.27;;
77944;SDS011;67142;47.404;-1.384;2023-04-08T13:39:19;21.07;;;19.47;;
77944;SDS011;67142;47.404;-1.384;2023-04-08T13:41:44;22.00;;;20.30;;
77944;SDS011;67142;47.404;-1.384;2023-04-08T13:44:11;21.45;;;19.75;;
77944;SDS011;67142;47.404;-1.384;2023-04-08T13:46:37;19.55;;;18.05;;
77944;SDS011;67142;47.404;-1.384;2023-04-08T13:49:03;21.67;;;20.02;;
77944;SDS011;67142;47.404;-1.384;2023-04-08T13:51:29;20.00;;;18.47;;
77944;SDS011;67142;47.404;-1.384;2023-04-08T13:53:55;20.17;;;18.63;;
77944;SDS011;67142;47.404;-1.384;2023-04-08T13:56:21;21.13;;;19.52;;
77944;SDS011;67142;47.404;-1.384;2023-04-08T13:58:47;20.25;;;18.55;;
77944;SDS011;67142;47.404;-1.384;2023-04-08T14:01:13;21.15;;;19.35;;
77944;SDS011;67142;47.404;-1.384;2023-04-08T14:03:40;19.60;;;18.10;;
77944;SDS011;67142;47.404;-1.384;2023-04-08T14:06:06;20.00;;;18.50;;
77944;SDS011;67142;47.404;-1.384;2023-04-08T14:08:32;21.27;;;19.67;;
77944;SDS011;67142;47.404;-1.384;2023-04-08T14:10:58;20.60;;;19.10;;
77944;SDS011;67142;47.404;-1.384;2023-04-08T14:13:24;21.20;;;19.30;;
77944;SDS011;67142;47.404;-1.384;2023-04-08T14:15:50;19.53;;;18.03;;
77944;SDS011;67142;47.404;-1.384;2023-04-08T14:18:18;20.23;;;18.73;;
77944;SDS011;67142;47.404;-1.384;2023-04-08T14:20:45;19.38;;;17.88;;
77944;SDS011;67142;47.404;-1.384;2023-04-08T14:23:11;19.65;;;18.05;;
77944;SDS011;67142;47.404;-1.384;2023-04-08T14:25:37;20.65;;;18.75;;
77944;SDS011;67142;47.404;-1.384;2023-04-08T14:28:03;19.77;;;18.27;;
77944;SDS011;67142;47.404;-1.384;2023-04-08T14:30:30;19.60;;;17.98;;
77944;SDS011;67142;47.404;-1.384;2023-04-08T14:32:56;20.27;;;18.67;;
77944;SDS011;67142;47.404;-1.384;2023-04-08T14:35:23;20.83;;;19.20;;
77944;SDS011;67142;47.404;-1.384;2023-04-08T14:37:49;19.83;;;18.23;;
77944;SDS011;67142;47.404;-1.384;2023-04-08T14:40:15;19.60;;;18.03;;
77944;SDS011;67142;47.404;-1.384;2023-04-08T14:42:41;18.98;;;17.55;;